createdAt,value
2023-02-12T00:01:29.186Z,36.45
2023-02-12T00:03:57.567Z,36.50
2023-02-12T00:06:26.037Z,36.96
2023-02-12T00:08:55.870Z,36.64
2023-02-12T00:11:26.505Z,36.62
2023-02-12T00:13:54.940Z,36.35
2023-02-12T00:16:25.491Z,36.49
2023-02-12T00:18:55.684Z,36.65
2023-02-12T00:21:24.574Z,36.66
2023-02-12T00:23:52.317Z,36.43
2023-02-12T00:26:22.209Z,35.75
2023-02-12T00:28:52.720Z,36.33
2023-02-12T00:31:23.772Z,36.21
2023-02-12T00:33:51.762Z,36.06
2023-02-12T00:36:24.136Z,35.99
2023-02-12T00:38:54.410Z,36.22
2023-02-12T00:41:23.592Z,35.79
2023-02-12T00:43:52.595Z,35.96
2023-02-12T00:46:21.260Z,35.53
2023-02-12T00:48:49.281Z,35.74
2023-02-12T00:51:20.635Z,35.70
2023-02-12T00:53:48.408Z,35.72
2023-02-12T00:56:16.458Z,35.85
2023-02-12T00:58:44.651Z,36.08
2023-02-12T01:01:12.622Z,35.94
2023-02-12T01:03:40.468Z,36.48
2023-02-12T01:06:08.934Z,36.16
2023-02-12T01:08:36.795Z,36.19
2023-02-12T01:11:06.494Z,36.04
2023-02-12T01:13:35.219Z,35.78
2023-02-12T01:16:09.114Z,35.83
2023-02-12T01:18:37.998Z,35.79
2023-02-12T01:21:20.815Z,35.23
2023-02-12T01:23:49.732Z,35.35
2023-02-12T01:26:19.778Z,35.37
2023-02-12T01:28:54.169Z,35.17
2023-02-12T01:31:24.898Z,35.55
2023-02-12T01:33:55.425Z,35.23
2023-02-12T01:36:23.794Z,35.31
2023-02-12T01:38:51.841Z,34.85
2023-02-12T01:41:42.272Z,34.80
2023-02-12T01:44:27.000Z,34.63
2023-02-12T01:46:58.358Z,34.84
2023-02-12T01:49:41.294Z,34.96
2023-02-12T01:52:16.125Z,34.84
2023-02-12T01:54:44.823Z,34.81
2023-02-12T01:57:14.701Z,34.85
2023-02-12T01:59:45.858Z,34.75
2023-02-12T02:02:14.143Z,36.54
2023-02-12T02:04:50.688Z,35.88
2023-02-12T02:07:18.523Z,35.75
2023-02-12T02:09:46.531Z,35.39
2023-02-12T02:12:32.798Z,35.17
2023-02-12T02:15:02.313Z,35.03
2023-02-12T02:17:50.008Z,34.87
2023-02-12T02:20:45.780Z,34.78
2023-02-12T02:23:32.105Z,34.71
2023-02-12T02:26:24.616Z,35.05
2023-02-12T02:29:13.358Z,35.58
2023-02-12T02:31:44.356Z,34.96
2023-02-12T02:34:23.586Z,34.70
2023-02-12T02:37:01.381Z,34.91
2023-02-12T02:39:45.020Z,35.57
2023-02-12T02:42:27.884Z,35.32
2023-02-12T02:45:05.097Z,35.79
2023-02-12T02:47:42.597Z,35.73
2023-02-12T02:50:12.823Z,35.96
2023-02-12T02:52:49.688Z,35.81
2023-02-12T02:55:20.645Z,36.07
2023-02-12T02:57:56.441Z,35.80
2023-02-12T03:00:42.712Z,35.79
2023-02-12T03:03:19.347Z,35.73
2023-02-12T03:05:50.949Z,35.59
2023-02-12T03:08:25.390Z,36.21
2023-02-12T03:11:01.880Z,36.12
2023-02-12T03:13:51.534Z,36.33
2023-02-12T03:16:33.002Z,36.20
2023-02-12T03:19:12.861Z,35.65
2023-02-12T03:21:57.431Z,35.69
2023-02-12T03:24:36.339Z,35.68
2023-02-12T03:27:27.520Z,35.98
2023-02-12T03:29:55.970Z,35.54
2023-02-12T03:32:38.877Z,35.96
2023-02-12T03:35:22.864Z,35.94
2023-02-12T03:38:13.421Z,35.62
2023-02-12T03:40:46.095Z,35.72
2023-02-12T03:43:30.428Z,35.61
2023-02-12T03:46:04.325Z,35.26
2023-02-12T03:49:01.358Z,35.40
2023-02-12T03:51:38.632Z,35.74
2023-02-12T03:54:09.182Z,36.03
2023-02-12T03:56:46.162Z,35.66
2023-02-12T03:59:14.176Z,35.40
2023-02-12T04:01:42.621Z,35.81
2023-02-12T04:04:12.818Z,35.80
2023-02-12T04:06:41.945Z,35.56
2023-02-12T04:09:11.842Z,35.93
2023-02-12T04:11:54.688Z,35.55
2023-02-12T04:14:44.751Z,35.56
2023-02-12T04:17:46.973Z,35.47
2023-02-12T04:20:21.483Z,35.68
2023-02-12T04:23:23.312Z,35.79
2023-02-12T04:26:20.810Z,35.24
2023-02-12T04:29:07.333Z,35.42
2023-02-12T04:31:51.896Z,35.38
2023-02-12T04:34:43.391Z,34.98
2023-02-12T04:37:14.251Z,35.22
2023-02-12T04:39:43.792Z,35.29
2023-02-12T04:42:12.372Z,35.38
2023-02-12T04:44:43.268Z,34.97
2023-02-12T04:47:16.301Z,35.48
2023-02-12T04:49:44.533Z,35.66
2023-02-12T04:52:13.448Z,35.52
2023-02-12T04:54:41.289Z,35.32
2023-02-12T04:57:09.752Z,35.22
2023-02-12T04:59:37.592Z,35.15
2023-02-12T05:02:06.063Z,35.09
2023-02-12T05:04:33.911Z,35.18
2023-02-12T05:07:01.604Z,35.46
2023-02-12T05:09:29.603Z,35.21
2023-02-12T05:11:57.474Z,35.25
2023-02-12T05:14:26.138Z,35.19
2023-02-12T05:16:54.048Z,35.39
2023-02-12T05:19:21.771Z,35.22
2023-02-12T05:21:53.063Z,35.05
2023-02-12T05:24:20.913Z,34.75
2023-02-12T05:26:51.256Z,35.01
2023-02-12T05:29:19.804Z,34.61
2023-02-12T05:31:47.912Z,34.91
2023-02-12T05:34:16.553Z,34.75
2023-02-12T05:36:44.535Z,34.84
2023-02-12T05:39:12.542Z,34.36
2023-02-12T05:41:40.295Z,34.82
2023-02-12T05:44:08.663Z,34.89
2023-02-12T05:46:36.649Z,34.84
2023-02-12T05:49:05.043Z,34.34
2023-02-12T05:51:32.924Z,34.41
2023-02-12T05:54:04.102Z,34.33
2023-02-12T05:56:35.038Z,36.69
2023-02-12T05:59:13.744Z,37.22
2023-02-12T06:01:44.357Z,35.35
2023-02-12T06:04:30.732Z,34.59
2023-02-12T06:07:00.625Z,34.67
2023-02-12T06:09:28.586Z,34.82
2023-02-12T06:11:56.758Z,34.74
2023-02-12T06:14:24.621Z,34.56
2023-02-12T06:16:52.847Z,34.79
2023-02-12T06:19:21.294Z,35.08
2023-02-12T06:21:49.343Z,35.18
2023-02-12T06:24:18.695Z,35.26
2023-02-12T06:26:49.358Z,35.07
2023-02-12T06:29:18.293Z,35.49
2023-02-12T06:31:46.288Z,35.17
2023-02-12T06:34:19.698Z,34.84
2023-02-12T06:36:49.276Z,34.44
2023-02-12T06:39:17.864Z,34.62
2023-02-12T06:41:45.973Z,34.60
2023-02-12T06:44:14.141Z,35.39
2023-02-12T06:46:42.430Z,35.40
2023-02-12T06:49:12.821Z,35.89
2023-02-12T06:51:41.538Z,35.73
2023-02-12T06:54:14.513Z,35.62
2023-02-12T06:56:44.093Z,35.56
2023-02-12T06:59:15.632Z,36.16
2023-02-12T07:01:44.361Z,35.65
2023-02-12T07:04:12.535Z,35.68
2023-02-12T07:06:40.849Z,35.42
2023-02-12T07:09:09.534Z,35.40
2023-02-12T07:11:38.716Z,35.54
2023-02-12T07:14:13.756Z,35.36
2023-02-12T07:16:41.693Z,35.13
2023-02-12T07:19:13.816Z,35.42
2023-02-12T07:21:42.137Z,35.32
2023-02-12T07:24:14.215Z,35.17
2023-02-12T07:26:42.377Z,35.16
2023-02-12T07:29:10.696Z,34.89
2023-02-12T07:31:39.159Z,35.18
2023-02-12T07:34:08.229Z,35.51
2023-02-12T07:36:36.344Z,35.48
2023-02-12T07:39:05.105Z,35.35
2023-02-12T07:41:35.328Z,35.29
2023-02-12T07:44:10.667Z,35.10
2023-02-12T07:46:41.803Z,35.14
2023-02-12T07:49:13.727Z,35.59
2023-02-12T07:51:42.959Z,35.56
2023-02-12T07:54:12.303Z,35.99
2023-02-12T07:56:44.218Z,35.71
2023-02-12T07:59:14.393Z,35.71
2023-02-12T08:01:46.451Z,35.65
2023-02-12T08:04:16.695Z,35.82
2023-02-12T08:06:46.963Z,35.38
2023-02-12T08:09:35.202Z,35.78
2023-02-12T08:12:03.346Z,35.50
2023-02-12T08:14:31.378Z,35.86
2023-02-12T08:16:59.962Z,36.13
2023-02-12T08:19:27.896Z,36.18
2023-02-12T08:21:58.623Z,36.18
2023-02-12T08:24:26.737Z,36.22
2023-02-12T08:26:56.161Z,36.06
2023-02-12T08:29:26.960Z,36.07
2023-02-12T08:32:02.547Z,35.49
2023-02-12T08:34:33.024Z,35.40
2023-02-12T08:37:01.324Z,36.25
2023-02-12T08:39:30.355Z,36.62
2023-02-12T08:41:59.712Z,36.30
2023-02-12T08:44:28.171Z,36.44
2023-02-12T08:46:56.373Z,36.54
2023-02-12T08:49:30.083Z,36.33
2023-02-12T08:51:59.841Z,36.46
2023-02-12T08:54:29.949Z,36.29
2023-02-12T08:56:59.798Z,36.84
2023-02-12T08:59:28.420Z,38.28
2023-02-12T09:01:56.278Z,37.72
2023-02-12T09:04:26.927Z,37.20
2023-02-12T09:06:55.875Z,36.15
2023-02-12T09:09:24.602Z,35.32
2023-02-12T09:11:53.298Z,36.76
2023-02-12T09:14:27.161Z,35.49
2023-02-12T09:16:55.321Z,34.34
2023-02-12T09:19:23.766Z,34.11
2023-02-12T09:21:55.527Z,33.36
2023-02-12T09:24:26.300Z,33.59
2023-02-12T09:26:55.730Z,33.55
2023-02-12T09:29:23.910Z,33.65
2023-02-12T09:31:53.771Z,33.76
2023-02-12T09:34:21.848Z,33.96
2023-02-12T09:36:49.672Z,34.32
2023-02-12T09:39:17.417Z,33.98
2023-02-12T09:41:48.212Z,33.70
2023-02-12T09:44:22.579Z,34.44
2023-02-12T09:46:59.174Z,34.35
2023-02-12T09:49:46.122Z,34.30
2023-02-12T09:52:24.663Z,33.83
2023-02-12T09:54:52.874Z,33.91
2023-02-12T09:57:36.799Z,33.28
2023-02-12T10:00:09.618Z,33.47
2023-02-12T10:02:39.706Z,33.71
2023-02-12T10:05:19.705Z,33.38
2023-02-12T10:07:53.673Z,32.90
2023-02-12T10:10:50.260Z,32.34
2023-02-12T10:13:18.026Z,31.30
2023-02-12T10:16:07.725Z,31.36
2023-02-12T10:18:57.628Z,31.43
2023-02-12T10:21:31.463Z,31.51
2023-02-12T10:24:20.898Z,32.09
2023-02-12T10:26:50.460Z,32.17
2023-02-12T10:29:29.266Z,33.15
2023-02-12T10:32:08.141Z,33.10
2023-02-12T10:34:37.411Z,33.78
2023-02-12T10:37:12.551Z,33.17
2023-02-12T10:39:50.994Z,33.59
2023-02-12T10:42:34.296Z,34.43
2023-02-12T10:45:03.754Z,34.30
2023-02-12T10:47:31.570Z,34.80
2023-02-12T10:50:01.466Z,35.03
2023-02-12T10:52:55.240Z,36.24
2023-02-12T10:55:32.566Z,35.88
2023-02-12T10:58:03.239Z,36.17
2023-02-12T11:00:37.566Z,36.25
2023-02-12T11:03:11.704Z,36.30
2023-02-12T11:05:41.966Z,36.64
2023-02-12T11:08:28.809Z,38.15
2023-02-12T11:11:04.845Z,37.49
2023-02-12T11:13:32.787Z,38.20
2023-02-12T11:16:02.060Z,36.79
2023-02-12T11:18:36.758Z,36.72
2023-02-12T11:21:12.876Z,36.14
2023-02-12T11:23:43.440Z,35.54
2023-02-12T11:26:20.328Z,35.27
2023-02-12T11:29:22.114Z,34.92
2023-02-12T11:32:05.967Z,36.80
2023-02-12T11:34:36.514Z,36.88
2023-02-12T11:37:05.407Z,36.98
2023-02-12T11:39:36.660Z,35.97
2023-02-12T11:42:15.640Z,35.08
2023-02-12T11:44:49.929Z,35.49
2023-02-12T11:47:22.392Z,35.45
2023-02-12T11:49:58.706Z,35.39
2023-02-12T11:52:31.673Z,35.59
2023-02-12T11:55:08.402Z,35.47
2023-02-12T11:57:38.677Z,35.34
2023-02-12T12:00:29.233Z,36.54
2023-02-12T12:03:05.086Z,35.80
2023-02-12T12:05:44.980Z,35.55
2023-02-12T12:08:23.107Z,35.11
2023-02-12T12:11:04.380Z,35.03
2023-02-12T12:13:41.838Z,35.29
2023-02-12T12:16:37.825Z,35.36
2023-02-12T12:19:43.401Z,35.34
2023-02-12T12:22:41.504Z,35.24
2023-02-12T12:25:30.929Z,35.63
2023-02-12T12:28:17.602Z,36.34
2023-02-12T12:30:58.451Z,36.40
2023-02-12T12:33:37.351Z,36.24
2023-02-12T12:36:14.792Z,36.89
2023-02-12T12:39:01.280Z,38.16
2023-02-12T12:42:28.335Z,37.27
2023-02-12T12:45:08.684Z,37.05
2023-02-12T12:47:45.672Z,37.41
2023-02-12T12:50:13.716Z,37.16
2023-02-12T12:53:18.167Z,37.55
2023-02-12T12:56:19.448Z,37.44
2023-02-12T12:58:55.000Z,37.46
2023-02-12T13:01:35.369Z,37.16
2023-02-12T13:04:29.427Z,36.78
2023-02-12T13:07:32.904Z,36.75
2023-02-12T13:10:29.764Z,36.32
2023-02-12T13:13:26.588Z,36.25
2023-02-12T13:16:14.860Z,36.48
2023-02-12T13:19:07.052Z,35.94
2023-02-12T13:21:59.743Z,36.04
2023-02-12T13:24:50.774Z,35.91
2023-02-12T13:27:36.294Z,35.92
2023-02-12T13:30:28.270Z,36.13
2023-02-12T13:33:02.560Z,36.16
2023-02-12T13:35:32.922Z,35.84
2023-02-12T13:38:03.028Z,35.54
2023-02-12T13:40:31.572Z,35.51
2023-02-12T13:43:33.151Z,35.47
2023-02-12T13:46:27.172Z,36.10
2023-02-12T13:49:06.334Z,36.15
2023-02-12T13:51:34.071Z,35.90
2023-02-12T13:54:10.848Z,36.35
2023-02-12T13:56:50.056Z,35.92
2023-02-12T13:59:36.306Z,35.66
2023-02-12T14:02:13.345Z,36.03
2023-02-12T14:04:47.581Z,35.90
2023-02-12T14:07:16.644Z,36.00
2023-02-12T14:10:06.990Z,36.21
2023-02-12T14:12:40.568Z,35.81
2023-02-12T14:15:31.614Z,35.97
2023-02-12T14:18:02.594Z,36.00
2023-02-12T14:20:37.404Z,36.06
2023-02-12T14:23:29.124Z,36.24
2023-02-12T14:26:04.612Z,37.51
2023-02-12T14:28:34.836Z,37.62
2023-02-12T14:31:18.040Z,36.83
2023-02-12T14:33:48.061Z,36.27
2023-02-12T14:36:39.738Z,36.29
2023-02-12T14:39:19.823Z,36.59
2023-02-12T14:41:49.551Z,36.80
2023-02-12T14:44:20.290Z,37.00
2023-02-12T14:46:52.255Z,36.86
2023-02-12T14:49:47.544Z,36.08
2023-02-12T14:52:25.773Z,36.00
2023-02-12T14:55:00.054Z,36.07
2023-02-12T14:57:37.466Z,36.00
2023-02-12T15:00:18.228Z,35.56
2023-02-12T15:03:05.564Z,35.74
2023-02-12T15:05:56.834Z,36.15
2023-02-12T15:08:27.766Z,36.27
2023-02-12T15:11:28.288Z,36.26
2023-02-12T15:14:14.676Z,36.55
2023-02-12T15:17:02.599Z,36.40
2023-02-12T15:19:53.899Z,36.37
2023-02-12T15:22:36.084Z,36.51
2023-02-12T15:25:31.980Z,36.44
2023-02-12T15:28:33.693Z,36.55
2023-02-12T15:31:06.611Z,36.85
2023-02-12T15:33:41.166Z,36.61
2023-02-12T15:36:16.275Z,36.54
2023-02-12T15:38:50.040Z,36.83
2023-02-12T15:41:34.241Z,36.96
2023-02-12T15:44:19.128Z,37.01
2023-02-12T15:47:14.643Z,36.59
2023-02-12T15:49:49.128Z,36.76
2023-02-12T15:52:26.032Z,36.70
2023-02-12T15:54:57.521Z,36.65
2023-02-12T15:57:25.626Z,36.65
2023-02-12T16:00:00.440Z,37.17
2023-02-12T16:02:31.004Z,37.26
2023-02-12T16:05:01.028Z,37.17
2023-02-12T16:07:35.629Z,37.41
2023-02-12T16:10:05.928Z,37.39
2023-02-12T16:12:37.780Z,36.89
2023-02-12T16:15:07.438Z,37.08
2023-02-12T16:17:38.382Z,37.37
2023-02-12T16:20:23.296Z,37.62
2023-02-12T16:22:54.706Z,38.55
2023-02-12T16:25:35.368Z,38.15
2023-02-12T16:28:16.859Z,38.79
2023-02-12T16:30:48.438Z,38.77
2023-02-12T16:33:34.472Z,38.97
2023-02-12T16:36:30.655Z,38.71
2023-02-12T16:39:05.956Z,37.75
2023-02-12T16:41:52.821Z,38.10
2023-02-12T16:44:29.773Z,37.95
2023-02-12T16:47:02.845Z,38.20
2023-02-12T16:49:31.075Z,40.31
2023-02-12T16:52:38.934Z,40.98
2023-02-12T16:55:14.503Z,40.20
2023-02-12T16:57:42.253Z,39.62
2023-02-12T17:00:15.986Z,39.23
2023-02-12T17:02:43.886Z,39.52
2023-02-12T17:05:11.901Z,39.10
2023-02-12T17:07:41.501Z,38.24
2023-02-12T17:10:14.285Z,37.96
2023-02-12T17:13:00.361Z,38.09
2023-02-12T17:15:33.221Z,39.03
2023-02-12T17:18:01.916Z,39.12
2023-02-12T17:20:29.759Z,38.39
2023-02-12T17:22:59.718Z,38.35
2023-02-12T17:25:30.284Z,37.99
2023-02-12T17:27:59.134Z,37.54
2023-02-12T17:30:28.508Z,38.50
2023-02-12T17:32:56.286Z,39.14
2023-02-12T17:35:23.909Z,39.45
2023-02-12T17:37:51.820Z,39.57
2023-02-12T17:40:19.984Z,38.68
2023-02-12T17:42:49.043Z,38.12
2023-02-12T17:45:18.028Z,38.15
2023-02-12T17:47:46.721Z,37.98
2023-02-12T17:50:16.814Z,38.25
2023-02-12T17:52:45.143Z,38.72
2023-02-12T17:55:14.228Z,38.91
2023-02-12T17:57:42.071Z,39.17
2023-02-12T18:00:12.889Z,39.89
2023-02-12T18:02:40.748Z,39.25
2023-02-12T18:05:08.908Z,39.06
2023-02-12T18:07:38.144Z,39.58
2023-02-12T18:10:08.003Z,39.61
2023-02-12T18:12:37.383Z,40.06
2023-02-12T18:15:07.258Z,40.45
2023-02-12T18:17:36.245Z,40.19
2023-02-12T18:20:05.030Z,39.74
2023-02-12T18:22:34.569Z,39.49
2023-02-12T18:25:05.971Z,39.37
2023-02-12T18:27:33.596Z,39.43
2023-02-12T18:30:02.714Z,39.10
2023-02-12T18:32:31.017Z,39.21
2023-02-12T18:34:58.782Z,39.67
2023-02-12T18:37:27.554Z,39.73
2023-02-12T18:39:55.404Z,39.74
2023-02-12T18:42:25.629Z,39.63
2023-02-12T18:44:53.453Z,41.07
2023-02-12T18:47:21.500Z,41.24
2023-02-12T18:49:49.313Z,41.91
2023-02-12T18:52:17.262Z,41.50
2023-02-12T18:54:45.140Z,41.90
2023-02-12T18:57:13.013Z,41.79
2023-02-12T18:59:41.112Z,41.96
2023-02-12T19:02:12.658Z,42.61
2023-02-12T19:04:40.598Z,41.10
2023-02-12T19:07:08.446Z,40.68
2023-02-12T19:09:36.354Z,40.42
2023-02-12T19:12:05.883Z,39.84
2023-02-12T19:14:34.563Z,39.57
2023-02-12T19:17:02.422Z,39.97
2023-02-12T19:19:30.417Z,39.71
2023-02-12T19:21:58.361Z,39.73
2023-02-12T19:24:28.687Z,39.47
2023-02-12T19:27:02.833Z,39.58
2023-02-12T19:29:31.913Z,39.82
2023-02-12T19:32:02.766Z,39.86
2023-02-12T19:34:33.206Z,39.51
2023-02-12T19:37:02.431Z,39.71
2023-02-12T19:42:22.869Z,39.47
2023-02-12T19:44:50.664Z,39.04
2023-02-12T19:47:19.144Z,39.28
2023-02-12T19:49:50.670Z,39.54
2023-02-12T19:52:19.802Z,39.59
2023-02-12T19:54:47.825Z,39.31
2023-02-12T19:57:20.650Z,39.66
2023-02-12T19:59:50.760Z,39.50
2023-02-12T20:02:19.220Z,39.08
2023-02-12T20:04:50.849Z,38.88
2023-02-12T20:07:21.836Z,38.85
2023-02-12T20:09:55.140Z,38.66
2023-02-12T20:12:24.070Z,38.71
2023-02-12T20:14:54.948Z,38.58
2023-02-12T20:17:23.301Z,38.53
2023-02-12T20:19:52.590Z,38.55
2023-02-12T20:22:24.537Z,38.62
2023-02-12T20:24:52.699Z,38.55
2023-02-12T20:27:20.368Z,38.77
2023-02-12T20:29:48.748Z,39.24
2023-02-12T20:32:19.246Z,38.58
2023-02-12T20:34:51.444Z,38.62
2023-02-12T20:37:20.646Z,38.58
2023-02-12T20:39:49.651Z,38.32
2023-02-12T20:42:18.912Z,38.41
2023-02-12T20:44:49.248Z,38.49
2023-02-12T20:47:18.012Z,39.34
2023-02-12T20:49:45.835Z,38.83
2023-02-12T20:52:20.287Z,38.62
2023-02-12T20:54:49.669Z,38.38
2023-02-12T20:57:20.857Z,38.55
2023-02-12T20:59:50.368Z,38.61
2023-02-12T21:02:18.770Z,38.83
2023-02-12T21:04:46.784Z,38.98
2023-02-12T21:07:18.047Z,39.24
2023-02-12T21:09:46.445Z,39.33
2023-02-12T21:12:19.822Z,39.10
2023-02-12T21:14:49.316Z,38.82
2023-02-12T21:17:20.664Z,38.68
2023-02-12T21:19:48.549Z,38.40
2023-02-12T21:22:18.946Z,38.66
2023-02-12T21:24:47.545Z,39.03
2023-02-12T21:27:15.720Z,39.16
2023-02-12T21:29:46.374Z,39.28
2023-02-12T21:32:20.744Z,39.01
2023-02-12T21:34:50.782Z,38.54
2023-02-12T21:37:20.201Z,38.59
2023-02-12T21:39:49.390Z,38.41
2023-02-12T21:42:20.031Z,38.58
2023-02-12T21:44:47.950Z,38.45
2023-02-12T21:47:16.056Z,38.41
2023-02-12T21:49:53.598Z,37.96
2023-02-12T21:52:22.839Z,37.77
2023-02-12T21:54:53.364Z,38.05
2023-02-12T21:57:24.256Z,38.33
2023-02-12T21:59:55.669Z,38.13
2023-02-12T22:02:25.048Z,38.21
2023-02-12T22:04:55.178Z,38.22
2023-02-12T22:07:25.026Z,38.41
2023-02-12T22:09:58.066Z,38.51
2023-02-12T22:12:31.407Z,38.63
2023-02-12T22:15:04.932Z,38.45
2023-02-12T22:17:33.851Z,38.70
2023-02-12T22:20:01.795Z,38.49
2023-02-12T22:22:31.517Z,38.20
2023-02-12T22:24:59.545Z,37.76
2023-02-12T22:27:30.069Z,37.78
2023-02-12T22:29:58.258Z,37.92
2023-02-12T22:32:26.216Z,37.95
2023-02-12T22:34:54.146Z,38.49
2023-02-12T22:37:21.972Z,38.32
2023-02-12T22:39:51.579Z,37.90
2023-02-12T22:42:21.263Z,38.56
2023-02-12T22:44:49.106Z,38.53
2023-02-12T22:47:17.112Z,38.19
2023-02-12T22:49:44.826Z,38.48
2023-02-12T22:52:12.807Z,38.40
2023-02-12T22:54:40.738Z,38.63
2023-02-12T22:57:08.562Z,38.71
2023-02-12T22:59:36.400Z,38.49
2023-02-12T23:02:04.437Z,38.70
2023-02-12T23:04:32.585Z,38.47
2023-02-12T23:07:00.540Z,38.31
2023-02-12T23:09:28.700Z,38.55
2023-02-12T23:11:56.621Z,38.17
2023-02-12T23:14:24.782Z,38.25
2023-02-12T23:16:52.885Z,38.02
2023-02-12T23:19:20.922Z,38.12
2023-02-12T23:21:48.697Z,37.92
2023-02-12T23:24:16.888Z,37.77
2023-02-12T23:26:45.038Z,37.63
2023-02-12T23:29:14.164Z,37.97
2023-02-12T23:31:42.096Z,38.29
2023-02-12T23:34:11.245Z,37.95
2023-02-12T23:36:40.283Z,38.12
2023-02-12T23:39:10.766Z,38.09
2023-02-12T23:41:38.488Z,38.09
2023-02-12T23:44:06.448Z,38.08
2023-02-12T23:46:34.814Z,37.86
2023-02-12T23:49:04.728Z,38.35
2023-02-12T23:51:32.722Z,37.68
2023-02-12T23:54:01.183Z,37.61
2023-02-12T23:56:32.412Z,37.74
2023-02-12T23:59:00.190Z,37.67
